createdAt,value
2018-10-16T00:01:20.445Z,83.50
2018-10-16T00:03:49.593Z,84.80
2018-10-16T00:06:19.378Z,87.60
2018-10-16T00:08:48.628Z,85.70
2018-10-16T00:11:17.848Z,85.90
2018-10-16T00:13:47.114Z,85.60
2018-10-16T00:16:16.364Z,85.10
2018-10-16T00:18:45.682Z,85.50
2018-10-16T00:21:14.900Z,85.70
2018-10-16T00:23:44.146Z,85.10
2018-10-16T00:26:13.335Z,85.40
2018-10-16T00:28:42.651Z,86.00
2018-10-16T00:31:11.850Z,86.70
2018-10-16T00:33:41.084Z,86.10
2018-10-16T00:36:10.373Z,86.60
2018-10-16T00:38:39.538Z,86.00
2018-10-16T00:41:08.754Z,85.50
2018-10-16T00:43:37.952Z,85.10
2018-10-16T00:46:07.383Z,87.40
2018-10-16T00:48:36.493Z,85.90
2018-10-16T00:51:05.761Z,88.10
2018-10-16T00:53:34.898Z,87.80
2018-10-16T00:56:04.129Z,87.20
2018-10-16T00:58:34.152Z,86.90
2018-10-16T01:01:03.346Z,87.50
2018-10-16T01:03:32.485Z,87.50
2018-10-16T01:06:02.561Z,89.10
2018-10-16T01:08:31.701Z,89.40
2018-10-16T01:11:00.854Z,89.70
2018-10-16T01:13:30.201Z,90.00
2018-10-16T01:15:59.376Z,89.20
2018-10-16T01:18:28.713Z,89.50
2018-10-16T01:20:57.886Z,88.70
2018-10-16T01:23:27.153Z,90.50
2018-10-16T01:25:56.303Z,90.10
2018-10-16T01:28:25.635Z,89.40
2018-10-16T01:30:54.879Z,89.50
2018-10-16T01:33:24.028Z,89.60
2018-10-16T01:35:53.254Z,90.10
2018-10-16T01:38:22.578Z,90.50
2018-10-16T01:40:51.804Z,92.00
2018-10-16T01:43:21.149Z,91.00
2018-10-16T01:45:50.370Z,90.90
2018-10-16T01:48:19.582Z,91.50
2018-10-16T01:50:48.649Z,93.00
2018-10-16T01:53:17.954Z,93.20
2018-10-16T01:55:47.183Z,94.10
2018-10-16T01:58:16.361Z,93.80
2018-10-16T02:00:46.662Z,93.90
2018-10-16T02:03:15.963Z,93.10
2018-10-16T02:05:45.194Z,92.80
2018-10-16T02:08:14.380Z,94.20
2018-10-16T02:10:43.618Z,93.60
2018-10-16T02:13:12.764Z,93.50
2018-10-16T02:15:41.866Z,93.40
2018-10-16T02:18:11.066Z,93.00
2018-10-16T02:20:40.263Z,93.10
2018-10-16T02:23:09.426Z,93.20
2018-10-16T02:25:38.598Z,94.10
2018-10-16T02:28:07.853Z,93.30
2018-10-16T02:30:37.035Z,93.00
2018-10-16T02:33:06.534Z,93.20
2018-10-16T02:35:35.769Z,93.00
2018-10-16T02:38:05.205Z,92.70
2018-10-16T02:40:34.381Z,92.90
2018-10-16T02:43:03.582Z,93.40
2018-10-16T02:45:32.697Z,93.20
2018-10-16T02:48:01.947Z,92.50
2018-10-16T02:50:31.129Z,92.50
2018-10-16T02:53:00.435Z,92.40
2018-10-16T02:55:29.555Z,92.70
2018-10-16T02:57:58.737Z,92.90
2018-10-16T03:00:27.984Z,92.50
2018-10-16T03:02:57.240Z,92.80
2018-10-16T03:05:26.454Z,92.80
2018-10-16T03:07:55.748Z,92.50
2018-10-16T03:10:25.093Z,92.90
2018-10-16T03:12:54.956Z,93.20
2018-10-16T03:15:24.154Z,93.90
2018-10-16T03:17:53.370Z,93.40
2018-10-16T03:20:22.494Z,93.30
2018-10-16T03:22:51.651Z,93.30
2018-10-16T03:25:20.904Z,94.60
2018-10-16T03:27:50.129Z,94.50
2018-10-16T03:30:19.574Z,93.40
2018-10-16T03:32:48.767Z,93.10
2018-10-16T03:35:18.038Z,94.10
2018-10-16T03:37:47.237Z,93.60
2018-10-16T03:40:16.425Z,93.80
2018-10-16T03:42:45.774Z,94.10
2018-10-16T03:45:15.014Z,94.70
2018-10-16T03:47:44.245Z,95.10
2018-10-16T03:50:13.432Z,94.80
2018-10-16T03:52:42.635Z,94.90
2018-10-16T03:55:12.003Z,94.30
2018-10-16T03:57:40.982Z,94.40
2018-10-16T04:00:11.104Z,94.40
2018-10-16T04:02:40.500Z,94.60
2018-10-16T04:05:09.769Z,94.60
2018-10-16T04:07:39.702Z,94.70
2018-10-16T04:10:09.566Z,94.90
2018-10-16T04:12:38.785Z,94.70
2018-10-16T04:15:09.283Z,96.50
2018-10-16T04:17:39.221Z,96.20
2018-10-16T04:20:08.722Z,96.80
2018-10-16T04:22:38.320Z,96.40
2018-10-16T04:25:08.074Z,96.00
2018-10-16T04:27:37.138Z,95.80
2018-10-16T04:30:07.395Z,96.60
2018-10-16T04:32:36.641Z,96.30
2018-10-16T04:35:10.903Z,96.30
2018-10-16T04:37:40.165Z,96.00
2018-10-16T04:40:09.457Z,96.10
2018-10-16T04:42:38.746Z,97.00
2018-10-16T04:45:08.703Z,97.00
2018-10-16T04:47:38.170Z,96.80
2018-10-16T04:50:07.474Z,98.10
2018-10-16T04:52:36.605Z,97.10
2018-10-16T04:55:06.329Z,97.20
2018-10-16T04:57:35.593Z,96.80
2018-10-16T05:00:05.561Z,97.10
2018-10-16T05:02:34.813Z,97.60
2018-10-16T05:05:04.233Z,97.10
2018-10-16T05:07:33.607Z,96.80
2018-10-16T05:10:02.800Z,97.00
2018-10-16T05:12:31.994Z,97.30
2018-10-16T05:15:01.221Z,97.10
2018-10-16T05:17:30.489Z,98.00
2018-10-16T05:19:59.734Z,98.80
2018-10-16T05:22:29.117Z,99.90
2018-10-16T05:24:58.394Z,98.90
2018-10-16T05:27:27.602Z,99.50
2018-10-16T05:29:56.784Z,98.90
2018-10-16T05:32:25.929Z,98.90
2018-10-16T05:34:55.078Z,99.10
2018-10-16T05:37:24.314Z,98.80
2018-10-16T05:39:53.557Z,98.70
2018-10-16T05:42:22.738Z,99.00
2018-10-16T05:44:51.942Z,99.90
2018-10-16T05:47:21.206Z,99.70
2018-10-16T05:49:50.413Z,99.40
2018-10-16T05:52:19.711Z,99.30
2018-10-16T05:54:48.928Z,99.30
2018-10-16T05:57:18.189Z,99.10
2018-10-16T05:59:47.378Z,99.90
2018-10-16T06:02:16.697Z,99.70
2018-10-16T06:04:45.931Z,99.00
2018-10-16T06:07:15.090Z,99.00
2018-10-16T06:09:44.395Z,99.90
2018-10-16T06:12:13.573Z,99.60
2018-10-16T06:14:43.230Z,99.50
2018-10-16T06:17:12.350Z,99.90
2018-10-16T06:19:41.504Z,99.30
2018-10-16T06:22:10.602Z,99.00
2018-10-16T06:24:39.675Z,99.40
2018-10-16T06:27:08.828Z,99.90
2018-10-16T06:29:37.960Z,99.90
2018-10-16T06:32:07.992Z,99.90
2018-10-16T06:34:37.303Z,98.90
2018-10-16T06:37:06.641Z,98.80
2018-10-16T06:39:35.917Z,98.70
2018-10-16T06:42:05.189Z,99.90
2018-10-16T06:44:34.350Z,99.40
2018-10-16T06:47:03.505Z,98.80
2018-10-16T06:49:32.769Z,98.60
2018-10-16T06:52:02.074Z,99.70
2018-10-16T06:54:31.615Z,99.00
2018-10-16T06:57:00.922Z,99.10
2018-10-16T06:59:30.094Z,98.50
2018-10-16T07:01:59.281Z,98.40
2018-10-16T07:04:28.469Z,98.60
2018-10-16T07:06:57.703Z,99.90
2018-10-16T07:09:27.194Z,99.00
2018-10-16T07:11:56.490Z,98.90
2018-10-16T07:14:26.027Z,98.20
2018-10-16T07:16:55.241Z,98.20
2018-10-16T07:19:24.493Z,97.70
2018-10-16T07:21:53.905Z,98.60
2018-10-16T07:24:23.014Z,97.90
2018-10-16T07:26:52.118Z,98.80
2018-10-16T07:29:21.290Z,98.20
2018-10-16T07:31:50.485Z,98.40
2018-10-16T07:34:19.562Z,97.80
2018-10-16T07:36:48.737Z,98.10
2018-10-16T07:39:17.850Z,98.10
2018-10-16T07:41:47.103Z,97.50
2018-10-16T07:44:16.310Z,97.80
2018-10-16T07:46:45.462Z,98.20
2018-10-16T07:49:14.625Z,97.00
2018-10-16T07:51:43.886Z,98.20
2018-10-16T07:54:13.143Z,97.00
2018-10-16T07:56:42.425Z,96.80
2018-10-16T07:59:11.496Z,97.40
2018-10-16T08:01:40.581Z,97.10
2018-10-16T08:04:09.802Z,97.50
2018-10-16T08:06:39.108Z,96.30
2018-10-16T08:09:12.358Z,96.20
2018-10-16T08:11:48.603Z,95.90
2018-10-16T08:14:18.854Z,96.10
2018-10-16T08:16:49.183Z,96.60
2018-10-16T08:19:18.305Z,95.50
2018-10-16T08:21:48.374Z,95.00
2018-10-16T08:24:17.618Z,94.80
2018-10-16T08:26:46.997Z,95.40
2018-10-16T08:29:16.230Z,95.10
2018-10-16T08:31:45.533Z,95.20
2018-10-16T08:34:14.808Z,95.20
2018-10-16T08:36:44.060Z,95.10
2018-10-16T08:39:21.129Z,94.40
2018-10-16T08:46:08.770Z,94.40
2018-10-16T08:48:48.798Z,92.90
2018-10-16T08:51:28.833Z,92.70
2018-10-16T08:53:57.997Z,92.50
2018-10-16T08:56:27.217Z,91.70
2018-10-16T08:58:56.517Z,91.40
2018-10-16T09:01:25.799Z,91.80
2018-10-16T09:03:54.971Z,91.60
2018-10-16T09:06:24.204Z,88.60
2018-10-16T09:08:53.322Z,85.10
2018-10-16T09:11:22.615Z,85.00
2018-10-16T09:13:51.982Z,84.90
2018-10-16T09:16:22.019Z,84.60
2018-10-16T09:18:51.338Z,83.40
2018-10-16T09:21:21.490Z,82.50
2018-10-16T09:23:50.686Z,79.70
2018-10-16T09:26:19.979Z,76.50
2018-10-16T09:28:49.122Z,77.70
2018-10-16T09:31:18.314Z,76.80
2018-10-16T09:33:47.573Z,74.30
2018-10-16T09:36:16.734Z,73.00
2018-10-16T09:38:46.022Z,73.50
2018-10-16T09:41:15.322Z,74.90
2018-10-16T09:43:44.498Z,71.80
2018-10-16T09:46:13.730Z,71.90
2018-10-16T09:48:43.054Z,71.80
2018-10-16T09:51:12.335Z,73.20
2018-10-16T09:53:41.524Z,73.80
2018-10-16T09:56:10.740Z,73.40
2018-10-16T09:58:39.892Z,74.90
2018-10-16T10:01:14.159Z,73.30
2018-10-16T10:03:43.470Z,71.10
2018-10-16T10:06:12.633Z,69.40
2018-10-16T10:08:41.912Z,70.20
2018-10-16T10:11:11.107Z,67.80
2018-10-16T10:13:40.283Z,66.50
2018-10-16T10:16:09.541Z,66.10
2018-10-16T10:18:38.805Z,63.20
2018-10-16T10:21:08.065Z,60.00
2018-10-16T10:23:37.295Z,60.30
2018-10-16T10:26:06.543Z,58.10
2018-10-16T10:28:35.713Z,55.10
2018-10-16T10:31:04.887Z,53.60
2018-10-16T10:33:33.998Z,50.50
2018-10-16T10:36:03.162Z,49.50
2018-10-16T10:38:32.482Z,48.60
2018-10-16T10:41:01.839Z,48.40
2018-10-16T10:43:31.010Z,47.70
2018-10-16T10:46:00.205Z,45.80
2018-10-16T10:48:29.439Z,45.90
2018-10-16T10:50:58.920Z,46.50
2018-10-16T10:53:27.846Z,44.70
2018-10-16T10:55:57.219Z,43.20
2018-10-16T10:58:26.489Z,44.60
2018-10-16T11:00:55.718Z,44.50
2018-10-16T11:03:25.143Z,44.30
2018-10-16T11:05:54.303Z,43.90
2018-10-16T11:08:23.605Z,42.60
2018-10-16T11:10:53.545Z,42.10
2018-10-16T11:13:22.758Z,41.30
2018-10-16T11:15:51.854Z,41.40
2018-10-16T11:18:21.168Z,41.30
2018-10-16T11:20:50.318Z,41.20
2018-10-16T11:23:19.485Z,42.50
2018-10-16T11:25:48.760Z,41.20
2018-10-16T11:28:17.989Z,42.20
2018-10-16T11:30:47.235Z,41.60
2018-10-16T11:33:16.500Z,40.90
2018-10-16T11:35:45.700Z,40.30
2018-10-16T11:38:14.935Z,39.60
2018-10-16T11:40:44.122Z,39.90
2018-10-16T11:43:13.489Z,40.40
2018-10-16T11:45:42.779Z,40.10
2018-10-16T11:48:11.981Z,40.40
2018-10-16T11:50:41.176Z,40.70
2018-10-16T11:53:10.375Z,41.30
2018-10-16T11:55:39.554Z,41.10
2018-10-16T11:58:08.837Z,41.70
2018-10-16T12:00:38.035Z,41.30
2018-10-16T12:03:07.334Z,41.60
2018-10-16T12:05:36.863Z,40.40
2018-10-16T12:08:06.207Z,39.80
2018-10-16T12:10:35.231Z,39.70
2018-10-16T12:13:04.532Z,40.20
2018-10-16T12:15:33.798Z,40.60
2018-10-16T12:18:13.914Z,42.10
2018-10-16T12:20:46.914Z,40.60
2018-10-16T12:23:16.370Z,40.00
2018-10-16T12:25:45.657Z,41.10
2018-10-16T12:28:14.896Z,40.60
2018-10-16T12:30:44.185Z,41.30
2018-10-16T12:33:13.391Z,40.90
2018-10-16T12:35:42.531Z,40.90
2018-10-16T12:38:11.762Z,40.70
2018-10-16T12:40:40.966Z,41.20
2018-10-16T12:43:10.547Z,40.10
2018-10-16T12:45:39.806Z,40.70
2018-10-16T12:48:09.292Z,40.60
2018-10-16T12:50:38.519Z,40.40
2018-10-16T12:53:08.214Z,40.10
2018-10-16T12:55:37.336Z,40.90
2018-10-16T12:58:06.666Z,40.40
2018-10-16T13:00:35.833Z,40.90
2018-10-16T13:03:05.158Z,40.60
2018-10-16T13:05:34.290Z,41.60
2018-10-16T13:08:03.567Z,41.40
2018-10-16T13:10:32.750Z,41.50
2018-10-16T13:13:02.012Z,41.40
2018-10-16T13:15:31.237Z,42.30
2018-10-16T13:18:00.403Z,42.40
2018-10-16T13:20:29.557Z,43.50
2018-10-16T13:22:58.891Z,42.80
2018-10-16T13:25:27.911Z,43.10
2018-10-16T13:27:57.178Z,44.00
2018-10-16T13:30:26.462Z,44.00
2018-10-16T13:32:55.771Z,44.70
2018-10-16T13:35:25.066Z,45.00
2018-10-16T13:37:54.259Z,45.30
2018-10-16T13:40:23.546Z,46.40
2018-10-16T13:42:52.860Z,45.80
2018-10-16T13:45:21.993Z,45.90
2018-10-16T13:47:51.137Z,46.10
2018-10-16T13:50:20.298Z,46.10
2018-10-16T13:52:49.472Z,45.80
2018-10-16T13:55:18.706Z,46.00
2018-10-16T13:57:47.834Z,46.20
2018-10-16T14:00:18.304Z,46.60
2018-10-16T14:02:48.755Z,46.00
2018-10-16T14:05:18.104Z,46.70
2018-10-16T14:07:47.353Z,48.00
2018-10-16T14:10:17.195Z,47.40
2018-10-16T14:12:47.303Z,48.00
2018-10-16T14:15:17.011Z,48.10
2018-10-16T14:17:46.210Z,48.00
2018-10-16T14:20:15.487Z,48.30
2018-10-16T14:22:44.746Z,48.20
2018-10-16T14:25:15.218Z,50.10
2018-10-16T14:27:44.481Z,50.00
2018-10-16T14:30:14.856Z,49.30
2018-10-16T14:32:44.240Z,49.60
2018-10-16T14:35:14.060Z,51.00
2018-10-16T14:37:43.274Z,51.30
2018-10-16T14:40:14.399Z,50.70
2018-10-16T14:42:43.745Z,51.80
2018-10-16T14:45:13.698Z,51.80
2018-10-16T14:47:43.010Z,52.10
2018-10-16T14:50:13.939Z,52.60
2018-10-16T14:52:43.278Z,52.70
2018-10-16T14:55:12.457Z,53.00
2018-10-16T14:57:41.745Z,54.10
2018-10-16T15:00:12.410Z,54.00
2018-10-16T15:02:41.586Z,54.50
2018-10-16T15:05:12.613Z,55.50
2018-10-16T15:07:41.976Z,55.20
2018-10-16T15:10:11.249Z,55.20
2018-10-16T15:12:40.386Z,55.50
2018-10-16T15:15:10.246Z,55.60
2018-10-16T15:17:39.447Z,56.50
2018-10-16T15:20:10.117Z,56.30
2018-10-16T15:22:39.382Z,57.00
2018-10-16T15:25:09.603Z,57.00
2018-10-16T15:27:38.833Z,57.20
2018-10-16T15:30:09.314Z,57.20
2018-10-16T15:32:38.541Z,57.60
2018-10-16T15:35:09.162Z,58.60
2018-10-16T15:37:38.541Z,58.20
2018-10-16T15:40:09.138Z,58.10
2018-10-16T15:42:38.243Z,58.70
2018-10-16T15:45:09.861Z,58.90
2018-10-16T15:47:39.365Z,58.70
2018-10-16T15:50:09.218Z,59.40
2018-10-16T15:52:38.769Z,59.00
2018-10-16T15:55:08.682Z,59.10
2018-10-16T15:57:37.876Z,58.90
2018-10-16T16:00:10.501Z,59.50
2018-10-16T16:02:39.646Z,59.20
2018-10-16T16:05:08.801Z,59.50
2018-10-16T16:07:38.573Z,60.00
2018-10-16T16:10:09.666Z,59.90
2018-10-16T16:12:38.920Z,61.40
2018-10-16T16:15:09.578Z,60.90
2018-10-16T16:17:38.751Z,60.40
2018-10-16T16:20:09.333Z,60.80
2018-10-16T16:22:38.385Z,61.30
2018-10-16T16:25:09.536Z,61.50
2018-10-16T16:27:38.898Z,62.20
2018-10-16T16:30:10.089Z,60.50
2018-10-16T16:32:39.333Z,62.60
2018-10-16T16:35:08.620Z,63.10
2018-10-16T16:37:37.723Z,62.70
2018-10-16T16:40:09.544Z,62.90
2018-10-16T16:42:38.698Z,62.80
2018-10-16T16:45:08.793Z,63.10
2018-10-16T16:47:38.138Z,65.50
2018-10-16T16:50:08.534Z,64.20
2018-10-16T16:52:37.963Z,64.70
2018-10-16T16:55:08.848Z,65.00
2018-10-16T16:57:38.202Z,64.40
2018-10-16T17:00:09.883Z,66.20
2018-10-16T17:02:39.700Z,66.00
2018-10-16T17:05:09.551Z,65.90
2018-10-16T17:07:38.757Z,65.50
2018-10-16T17:10:08.869Z,66.30
2018-10-16T17:12:38.497Z,65.50
2018-10-16T17:15:09.735Z,67.20
2018-10-16T17:17:39.194Z,68.00
2018-10-16T17:20:09.491Z,67.40
2018-10-16T17:22:38.643Z,69.30
2018-10-16T17:25:09.101Z,68.20
2018-10-16T17:27:38.234Z,68.30
2018-10-16T17:30:10.347Z,68.50
2018-10-16T17:32:39.646Z,69.50
2018-10-16T17:35:09.749Z,70.20
2018-10-16T17:37:39.292Z,70.50
2018-10-16T17:40:10.422Z,70.70
2018-10-16T17:42:39.632Z,71.40
2018-10-16T17:45:10.707Z,71.20
2018-10-16T17:47:39.833Z,71.50
2018-10-16T17:50:11.415Z,71.70
2018-10-16T17:52:41.709Z,72.40
2018-10-16T17:55:11.854Z,72.60
2018-10-16T17:57:41.331Z,71.90
2018-10-16T18:00:15.036Z,73.30
2018-10-16T18:02:44.808Z,74.20
2018-10-16T18:05:14.647Z,76.10
2018-10-16T18:07:44.606Z,76.40
2018-10-16T18:10:13.981Z,75.40
2018-10-16T18:12:43.161Z,77.30
2018-10-16T18:15:13.625Z,76.20
2018-10-16T18:17:43.383Z,78.70
2018-10-16T18:20:14.405Z,78.30
2018-10-16T18:22:43.907Z,78.30
2018-10-16T18:25:13.237Z,78.30
2018-10-16T18:27:43.342Z,78.70
2018-10-16T18:30:12.829Z,79.40
2018-10-16T18:32:42.354Z,79.50
2018-10-16T18:35:11.853Z,81.90
2018-10-16T18:37:42.025Z,81.10
2018-10-16T18:40:11.936Z,84.40
2018-10-16T18:42:41.398Z,82.80
2018-10-16T18:45:12.191Z,83.70
2018-10-16T18:47:41.425Z,83.70
2018-10-16T18:50:11.842Z,84.20
2018-10-16T18:52:41.065Z,85.60
2018-10-16T18:55:11.853Z,84.20
2018-10-16T18:57:41.059Z,84.40
2018-10-16T19:00:12.489Z,85.00
2018-10-16T19:02:42.014Z,86.80
2018-10-16T19:05:11.615Z,87.10
2018-10-16T19:07:41.358Z,87.00
2018-10-16T19:10:10.658Z,88.60
2018-10-16T19:12:40.758Z,87.20
2018-10-16T19:15:11.901Z,88.20
2018-10-16T19:17:41.490Z,89.30
2018-10-16T19:20:12.073Z,89.40
2018-10-16T19:22:42.681Z,89.30
2018-10-16T19:25:12.851Z,89.20
2018-10-16T19:27:42.066Z,91.10
2018-10-16T19:30:12.096Z,90.60
2018-10-16T19:32:41.244Z,90.80
2018-10-16T19:35:11.874Z,91.10
2018-10-16T19:37:41.237Z,91.20
2018-10-16T19:40:10.455Z,91.60
2018-10-16T19:42:39.683Z,91.40
2018-10-16T19:45:09.580Z,91.30
2018-10-16T19:47:38.845Z,92.00
2018-10-16T19:50:08.922Z,92.20
2018-10-16T19:52:38.131Z,92.70
2018-10-16T19:55:07.386Z,92.70
2018-10-16T19:57:36.583Z,92.50
2018-10-16T20:00:06.496Z,94.10
2018-10-16T20:02:35.857Z,94.00
2018-10-16T20:05:05.265Z,93.80
2018-10-16T20:07:34.474Z,94.50
2018-10-16T20:10:03.691Z,94.00
2018-10-16T20:12:32.831Z,95.00
2018-10-16T20:15:02.110Z,95.30
2018-10-16T20:17:32.122Z,95.20
2018-10-16T20:20:01.258Z,94.90
2018-10-16T20:22:30.709Z,94.60
2018-10-16T20:24:59.902Z,95.40
2018-10-16T20:27:29.083Z,95.40
2018-10-16T20:29:58.217Z,96.30
2018-10-16T20:32:27.451Z,95.60
2018-10-16T20:34:56.633Z,95.20
2018-10-16T20:37:25.818Z,95.60
2018-10-16T20:39:55.405Z,95.70
2018-10-16T20:42:24.559Z,95.30
2018-10-16T20:44:53.745Z,95.50
2018-10-16T20:47:22.907Z,96.00
2018-10-16T20:49:52.034Z,96.50
2018-10-16T20:52:21.458Z,96.60
2018-10-16T20:54:51.109Z,96.70
2018-10-16T20:57:20.307Z,97.30
2018-10-16T20:59:49.707Z,97.40
2018-10-16T21:02:19.283Z,97.30
2018-10-16T21:04:48.662Z,97.70
2018-10-16T21:07:17.754Z,97.30
2018-10-16T21:09:46.955Z,97.10
2018-10-16T21:12:16.215Z,97.60
2018-10-16T21:14:45.382Z,97.60
2018-10-16T21:17:15.242Z,97.70
2018-10-16T21:19:44.703Z,98.00
2018-10-16T21:22:14.269Z,98.50
2018-10-16T21:24:43.484Z,98.90
2018-10-16T21:27:13.278Z,98.90
2018-10-16T21:29:42.455Z,99.20
2018-10-16T21:32:11.703Z,99.70
2018-10-16T21:34:40.806Z,99.60
2018-10-16T21:37:10.157Z,99.60
2018-10-16T21:39:39.700Z,99.90
2018-10-16T21:42:08.880Z,99.90
2018-10-16T21:44:38.083Z,99.90
2018-10-16T21:47:07.441Z,99.90
2018-10-16T21:49:37.195Z,99.90
2018-10-16T21:52:06.415Z,99.90
2018-10-16T21:54:35.709Z,99.90
2018-10-16T21:57:04.850Z,99.90
2018-10-16T21:59:34.311Z,99.90
2018-10-16T22:02:08.686Z,99.90
2018-10-16T22:04:39.804Z,99.90
2018-10-16T22:07:09.480Z,99.90
2018-10-16T22:09:38.587Z,99.90
2018-10-16T22:12:07.732Z,99.90
2018-10-16T22:14:36.977Z,99.90
2018-10-16T22:17:06.596Z,99.90
2018-10-16T22:19:35.894Z,99.90
2018-10-16T22:22:05.400Z,99.90
2018-10-16T22:24:34.635Z,99.90
2018-10-16T22:27:03.854Z,99.90
2018-10-16T22:29:33.168Z,99.90
2018-10-16T22:32:02.395Z,99.90
2018-10-16T22:34:31.731Z,99.90
2018-10-16T22:37:01.098Z,99.90
2018-10-16T22:39:30.339Z,99.90
2018-10-16T22:41:59.533Z,99.90
2018-10-16T22:44:29.509Z,99.90
2018-10-16T22:46:58.813Z,99.90
2018-10-16T22:49:28.038Z,99.90
2018-10-16T22:51:57.254Z,99.90
2018-10-16T22:54:26.420Z,99.90
2018-10-16T22:56:55.613Z,99.90
2018-10-16T22:59:24.841Z,99.90
2018-10-16T23:01:53.972Z,99.90
2018-10-16T23:04:23.179Z,99.90
2018-10-16T23:06:52.369Z,99.90
2018-10-16T23:09:21.666Z,99.90
2018-10-16T23:11:50.920Z,99.90
2018-10-16T23:14:20.415Z,99.90
2018-10-16T23:16:49.588Z,99.90
2018-10-16T23:19:18.819Z,99.90
2018-10-16T23:21:48.073Z,99.90
2018-10-16T23:24:17.249Z,99.90
2018-10-16T23:26:46.493Z,99.90
2018-10-16T23:29:15.658Z,99.90
2018-10-16T23:31:44.814Z,99.90
2018-10-16T23:34:13.968Z,99.90
2018-10-16T23:36:43.173Z,99.90
2018-10-16T23:39:13.918Z,99.90
2018-10-16T23:41:43.561Z,99.90
2018-10-16T23:44:13.039Z,99.90
2018-10-16T23:46:42.358Z,99.90
2018-10-16T23:49:11.621Z,99.90
2018-10-16T23:51:40.929Z,99.90
2018-10-16T23:54:10.238Z,99.90
2018-10-16T23:56:39.398Z,99.90
2018-10-16T23:59:08.721Z,99.90
